sensor_id;sensor_type;location;lat;lon;timestamp;P1;durP1;ratioP1;P2;durP2;ratioP2
77457;SDS011;66541;49.346;8.648;2023-04-25T00:02:19;6.20;;;1.60;;
77457;SDS011;66541;49.346;8.648;2023-04-25T00:04:44;5.50;;;1.20;;
77457;SDS011;66541;49.346;8.648;2023-04-25T00:07:09;6.35;;;1.52;;
77457;SDS011;66541;49.346;8.648;2023-04-25T00:09:35;6.38;;;1.60;;
77457;SDS011;66541;49.346;8.648;2023-04-25T00:12:00;6.38;;;1.65;;
77457;SDS011;66541;49.346;8.648;2023-04-25T00:14:26;4.85;;;1.23;;
77457;SDS011;66541;49.346;8.648;2023-04-25T00:16:52;5.38;;;1.42;;
77457;SDS011;66541;49.346;8.648;2023-04-25T00:19:19;5.60;;;1.05;;
77457;SDS011;66541;49.346;8.648;2023-04-25T00:21:44;5.93;;;1.48;;
77457;SDS011;66541;49.346;8.648;2023-04-25T00:24:11;4.75;;;1.23;;
77457;SDS011;66541;49.346;8.648;2023-04-25T00:26:37;4.82;;;1.30;;
77457;SDS011;66541;49.346;8.648;2023-04-25T00:29:02;6.47;;;1.13;;
77457;SDS011;66541;49.346;8.648;2023-04-25T00:31:28;5.13;;;1.20;;
77457;SDS011;66541;49.346;8.648;2023-04-25T00:33:54;4.95;;;1.15;;
77457;SDS011;66541;49.346;8.648;2023-04-25T00:36:19;7.57;;;1.58;;
77457;SDS011;66541;49.346;8.648;2023-04-25T00:38:44;6.15;;;1.35;;
77457;SDS011;66541;49.346;8.648;2023-04-25T00:41:10;5.47;;;1.20;;
77457;SDS011;66541;49.346;8.648;2023-04-25T00:43:36;5.43;;;1.33;;
77457;SDS011;66541;49.346;8.648;2023-04-25T00:46:01;6.82;;;1.58;;
77457;SDS011;66541;49.346;8.648;2023-04-25T00:48:27;4.05;;;1.20;;
77457;SDS011;66541;49.346;8.648;2023-04-25T00:50:53;6.43;;;1.30;;
77457;SDS011;66541;49.346;8.648;2023-04-25T00:53:22;4.63;;;1.17;;
77457;SDS011;66541;49.346;8.648;2023-04-25T00:55:49;6.82;;;1.48;;
77457;SDS011;66541;49.346;8.648;2023-04-25T00:58:18;5.72;;;1.20;;
77457;SDS011;66541;49.346;8.648;2023-04-25T01:00:45;5.43;;;1.23;;
77457;SDS011;66541;49.346;8.648;2023-04-25T01:03:12;4.60;;;1.10;;
77457;SDS011;66541;49.346;8.648;2023-04-25T01:05:45;6.00;;;1.48;;
77457;SDS011;66541;49.346;8.648;2023-04-25T01:08:11;7.57;;;1.50;;
77457;SDS011;66541;49.346;8.648;2023-04-25T01:10:37;5.43;;;1.58;;
77457;SDS011;66541;49.346;8.648;2023-04-25T01:13:02;5.47;;;1.67;;
77457;SDS011;66541;49.346;8.648;2023-04-25T01:15:31;6.07;;;1.40;;
77457;SDS011;66541;49.346;8.648;2023-04-25T01:17:56;6.20;;;1.70;;
77457;SDS011;66541;49.346;8.648;2023-04-25T01:20:23;7.43;;;1.50;;
77457;SDS011;66541;49.346;8.648;2023-04-25T01:22:51;7.50;;;1.60;;
77457;SDS011;66541;49.346;8.648;2023-04-25T01:25:17;6.75;;;1.48;;
77457;SDS011;66541;49.346;8.648;2023-04-25T01:27:43;7.97;;;1.80;;
77457;SDS011;66541;49.346;8.648;2023-04-25T01:30:09;6.05;;;1.23;;
77457;SDS011;66541;49.346;8.648;2023-04-25T01:32:34;6.70;;;1.33;;
77457;SDS011;66541;49.346;8.648;2023-04-25T01:35:07;5.82;;;1.50;;
77457;SDS011;66541;49.346;8.648;2023-04-25T01:37:34;7.57;;;1.85;;
77457;SDS011;66541;49.346;8.648;2023-04-25T01:40:06;6.28;;;1.70;;
77457;SDS011;66541;49.346;8.648;2023-04-25T01:42:33;7.13;;;1.48;;
77457;SDS011;66541;49.346;8.648;2023-04-25T01:44:59;6.95;;;1.70;;
77457;SDS011;66541;49.346;8.648;2023-04-25T01:47:24;6.07;;;1.67;;
77457;SDS011;66541;49.346;8.648;2023-04-25T01:49:49;6.28;;;1.88;;
77457;SDS011;66541;49.346;8.648;2023-04-25T01:52:15;7.38;;;1.90;;
77457;SDS011;66541;49.346;8.648;2023-04-25T01:54:40;7.38;;;2.33;;
77457;SDS011;66541;49.346;8.648;2023-04-25T01:57:09;6.93;;;2.33;;
77457;SDS011;66541;49.346;8.648;2023-04-25T01:59:34;6.10;;;1.50;;
77457;SDS011;66541;49.346;8.648;2023-04-25T02:02:00;8.60;;;2.30;;
77457;SDS011;66541;49.346;8.648;2023-04-25T02:04:28;7.55;;;1.75;;
77457;SDS011;66541;49.346;8.648;2023-04-25T02:06:53;7.00;;;2.03;;
77457;SDS011;66541;49.346;8.648;2023-04-25T02:09:19;6.03;;;1.50;;
77457;SDS011;66541;49.346;8.648;2023-04-25T02:11:44;7.35;;;2.10;;
77457;SDS011;66541;49.346;8.648;2023-04-25T02:14:10;7.40;;;1.55;;
77457;SDS011;66541;49.346;8.648;2023-04-25T02:16:35;8.25;;;2.10;;
77457;SDS011;66541;49.346;8.648;2023-04-25T02:19:00;7.60;;;2.35;;
77457;SDS011;66541;49.346;8.648;2023-04-25T02:21:26;7.53;;;2.10;;
77457;SDS011;66541;49.346;8.648;2023-04-25T02:23:51;6.90;;;2.13;;
77457;SDS011;66541;49.346;8.648;2023-04-25T02:26:17;9.00;;;1.85;;
77457;SDS011;66541;49.346;8.648;2023-04-25T02:28:42;8.10;;;2.40;;
77457;SDS011;66541;49.346;8.648;2023-04-25T02:31:07;6.57;;;2.03;;
77457;SDS011;66541;49.346;8.648;2023-04-25T02:33:33;6.95;;;1.98;;
77457;SDS011;66541;49.346;8.648;2023-04-25T02:35:59;6.45;;;2.00;;
77457;SDS011;66541;49.346;8.648;2023-04-25T02:38:24;6.45;;;2.05;;
77457;SDS011;66541;49.346;8.648;2023-04-25T02:40:50;7.03;;;2.20;;
77457;SDS011;66541;49.346;8.648;2023-04-25T02:43:15;7.82;;;2.10;;
77457;SDS011;66541;49.346;8.648;2023-04-25T02:45:41;6.55;;;1.80;;
77457;SDS011;66541;49.346;8.648;2023-04-25T02:48:06;7.72;;;2.05;;
77457;SDS011;66541;49.346;8.648;2023-04-25T02:50:31;7.65;;;2.10;;
77457;SDS011;66541;49.346;8.648;2023-04-25T02:52:56;7.35;;;2.40;;
77457;SDS011;66541;49.346;8.648;2023-04-25T02:55:22;7.53;;;2.22;;
77457;SDS011;66541;49.346;8.648;2023-04-25T02:57:47;7.50;;;2.50;;
77457;SDS011;66541;49.346;8.648;2023-04-25T03:00:13;9.60;;;2.40;;
77457;SDS011;66541;49.346;8.648;2023-04-25T03:02:39;7.85;;;2.20;;
77457;SDS011;66541;49.346;8.648;2023-04-25T03:05:05;8.63;;;2.42;;
77457;SDS011;66541;49.346;8.648;2023-04-25T03:07:30;7.65;;;2.42;;
77457;SDS011;66541;49.346;8.648;2023-04-25T03:09:56;7.88;;;2.70;;
77457;SDS011;66541;49.346;8.648;2023-04-25T03:12:21;8.32;;;2.30;;
77457;SDS011;66541;49.346;8.648;2023-04-25T03:14:47;8.32;;;2.35;;
77457;SDS011;66541;49.346;8.648;2023-04-25T03:17:12;7.35;;;2.22;;
77457;SDS011;66541;49.346;8.648;2023-04-25T03:19:37;7.55;;;2.17;;
77457;SDS011;66541;49.346;8.648;2023-04-25T03:22:03;7.80;;;2.17;;
77457;SDS011;66541;49.346;8.648;2023-04-25T03:24:28;7.40;;;2.20;;
77457;SDS011;66541;49.346;8.648;2023-04-25T03:26:53;9.25;;;2.70;;
77457;SDS011;66541;49.346;8.648;2023-04-25T03:29:19;9.10;;;2.35;;
77457;SDS011;66541;49.346;8.648;2023-04-25T03:31:44;7.50;;;2.67;;
77457;SDS011;66541;49.346;8.648;2023-04-25T03:34:10;8.43;;;2.10;;
77457;SDS011;66541;49.346;8.648;2023-04-25T03:36:35;10.88;;;2.90;;
77457;SDS011;66541;49.346;8.648;2023-04-25T03:39:01;8.02;;;2.80;;
77457;SDS011;66541;49.346;8.648;2023-04-25T03:41:26;7.72;;;2.33;;
77457;SDS011;66541;49.346;8.648;2023-04-25T03:43:51;8.60;;;2.60;;
77457;SDS011;66541;49.346;8.648;2023-04-25T03:46:17;8.05;;;2.28;;
77457;SDS011;66541;49.346;8.648;2023-04-25T03:48:42;7.53;;;2.25;;
77457;SDS011;66541;49.346;8.648;2023-04-25T03:51:07;7.72;;;2.92;;
77457;SDS011;66541;49.346;8.648;2023-04-25T03:53:32;7.07;;;2.30;;
77457;SDS011;66541;49.346;8.648;2023-04-25T03:55:58;8.63;;;2.55;;
77457;SDS011;66541;49.346;8.648;2023-04-25T03:58:23;9.52;;;3.35;;
77457;SDS011;66541;49.346;8.648;2023-04-25T04:00:49;8.88;;;2.40;;
77457;SDS011;66541;49.346;8.648;2023-04-25T04:03:14;7.72;;;2.20;;
77457;SDS011;66541;49.346;8.648;2023-04-25T04:05:39;7.65;;;2.20;;
77457;SDS011;66541;49.346;8.648;2023-04-25T04:08:05;8.55;;;2.95;;
77457;SDS011;66541;49.346;8.648;2023-04-25T04:10:31;8.05;;;2.88;;
77457;SDS011;66541;49.346;8.648;2023-04-25T04:12:56;7.47;;;2.20;;
77457;SDS011;66541;49.346;8.648;2023-04-25T04:15:21;10.13;;;3.03;;
77457;SDS011;66541;49.346;8.648;2023-04-25T04:17:47;8.82;;;2.45;;
77457;SDS011;66541;49.346;8.648;2023-04-25T04:20:13;9.00;;;2.60;;
77457;SDS011;66541;49.346;8.648;2023-04-25T04:22:38;8.57;;;2.88;;
77457;SDS011;66541;49.346;8.648;2023-04-25T04:25:04;9.32;;;3.17;;
77457;SDS011;66541;49.346;8.648;2023-04-25T04:27:30;8.57;;;2.78;;
77457;SDS011;66541;49.346;8.648;2023-04-25T04:29:56;7.80;;;2.72;;
77457;SDS011;66541;49.346;8.648;2023-04-25T04:32:22;7.88;;;2.60;;
77457;SDS011;66541;49.346;8.648;2023-04-25T04:34:48;8.70;;;2.78;;
77457;SDS011;66541;49.346;8.648;2023-04-25T04:37:13;9.65;;;2.92;;
77457;SDS011;66541;49.346;8.648;2023-04-25T04:39:39;8.57;;;3.03;;
77457;SDS011;66541;49.346;8.648;2023-04-25T04:42:05;7.82;;;2.58;;
77457;SDS011;66541;49.346;8.648;2023-04-25T04:44:30;10.25;;;3.70;;
77457;SDS011;66541;49.346;8.648;2023-04-25T04:46:59;8.63;;;2.78;;
77457;SDS011;66541;49.346;8.648;2023-04-25T04:49:24;8.88;;;3.17;;
77457;SDS011;66541;49.346;8.648;2023-04-25T04:51:50;8.48;;;2.42;;
77457;SDS011;66541;49.346;8.648;2023-04-25T04:54:15;9.20;;;2.85;;
77457;SDS011;66541;49.346;8.648;2023-04-25T04:56:41;7.82;;;2.55;;
77457;SDS011;66541;49.346;8.648;2023-04-25T04:59:06;9.63;;;2.80;;
77457;SDS011;66541;49.346;8.648;2023-04-25T05:01:32;9.20;;;2.90;;
77457;SDS011;66541;49.346;8.648;2023-04-25T05:03:57;9.90;;;3.05;;
77457;SDS011;66541;49.346;8.648;2023-04-25T05:06:29;9.52;;;2.85;;
77457;SDS011;66541;49.346;8.648;2023-04-25T05:08:55;10.57;;;2.83;;
77457;SDS011;66541;49.346;8.648;2023-04-25T05:11:21;8.13;;;2.85;;
77457;SDS011;66541;49.346;8.648;2023-04-25T05:13:47;9.48;;;3.17;;
77457;SDS011;66541;49.346;8.648;2023-04-25T05:16:12;10.27;;;3.42;;
77457;SDS011;66541;49.346;8.648;2023-04-25T05:18:38;9.10;;;3.28;;
77457;SDS011;66541;49.346;8.648;2023-04-25T05:21:04;9.55;;;3.53;;
77457;SDS011;66541;49.346;8.648;2023-04-25T05:23:30;8.77;;;2.97;;
77457;SDS011;66541;49.346;8.648;2023-04-25T05:25:57;10.00;;;3.08;;
77457;SDS011;66541;49.346;8.648;2023-04-25T05:28:22;10.52;;;2.95;;
77457;SDS011;66541;49.346;8.648;2023-04-25T05:30:47;8.73;;;3.10;;
77457;SDS011;66541;49.346;8.648;2023-04-25T05:33:13;9.50;;;3.08;;
77457;SDS011;66541;49.346;8.648;2023-04-25T05:35:38;8.35;;;2.63;;
77457;SDS011;66541;49.346;8.648;2023-04-25T05:38:03;9.35;;;3.67;;
77457;SDS011;66541;49.346;8.648;2023-04-25T05:40:29;8.95;;;3.30;;
77457;SDS011;66541;49.346;8.648;2023-04-25T05:42:54;10.57;;;3.55;;
77457;SDS011;66541;49.346;8.648;2023-04-25T05:45:19;9.32;;;3.05;;
77457;SDS011;66541;49.346;8.648;2023-04-25T05:47:45;11.85;;;3.55;;
77457;SDS011;66541;49.346;8.648;2023-04-25T05:50:10;8.93;;;3.38;;
77457;SDS011;66541;49.346;8.648;2023-04-25T05:52:35;8.90;;;2.95;;
77457;SDS011;66541;49.346;8.648;2023-04-25T05:55:01;9.23;;;3.03;;
77457;SDS011;66541;49.346;8.648;2023-04-25T05:57:26;8.02;;;2.95;;
77457;SDS011;66541;49.346;8.648;2023-04-25T05:59:52;9.23;;;3.55;;
77457;SDS011;66541;49.346;8.648;2023-04-25T06:02:21;9.43;;;3.13;;
77457;SDS011;66541;49.346;8.648;2023-04-25T06:04:46;8.60;;;2.78;;
77457;SDS011;66541;49.346;8.648;2023-04-25T06:07:12;8.38;;;2.53;;
77457;SDS011;66541;49.346;8.648;2023-04-25T06:09:38;10.70;;;3.22;;
77457;SDS011;66541;49.346;8.648;2023-04-25T06:12:04;9.25;;;3.53;;
77457;SDS011;66541;49.346;8.648;2023-04-25T06:14:30;9.40;;;3.47;;
77457;SDS011;66541;49.346;8.648;2023-04-25T06:16:55;9.48;;;3.50;;
77457;SDS011;66541;49.346;8.648;2023-04-25T06:19:21;8.75;;;3.03;;
77457;SDS011;66541;49.346;8.648;2023-04-25T06:21:46;10.30;;;4.05;;
77457;SDS011;66541;49.346;8.648;2023-04-25T06:24:12;7.72;;;2.58;;
77457;SDS011;66541;49.346;8.648;2023-04-25T06:26:37;8.75;;;3.35;;
77457;SDS011;66541;49.346;8.648;2023-04-25T06:29:02;10.05;;;3.25;;
77457;SDS011;66541;49.346;8.648;2023-04-25T06:31:27;8.80;;;2.75;;
77457;SDS011;66541;49.346;8.648;2023-04-25T06:33:54;8.65;;;3.05;;
77457;SDS011;66541;49.346;8.648;2023-04-25T06:36:19;9.25;;;2.92;;
77457;SDS011;66541;49.346;8.648;2023-04-25T06:38:49;10.30;;;3.40;;
77457;SDS011;66541;49.346;8.648;2023-04-25T06:41:15;8.73;;;3.33;;
77457;SDS011;66541;49.346;8.648;2023-04-25T06:43:40;9.63;;;3.42;;
77457;SDS011;66541;49.346;8.648;2023-04-25T06:46:05;9.57;;;3.15;;
77457;SDS011;66541;49.346;8.648;2023-04-25T06:48:31;10.23;;;3.70;;
77457;SDS011;66541;49.346;8.648;2023-04-25T06:50:56;9.70;;;3.35;;
77457;SDS011;66541;49.346;8.648;2023-04-25T06:53:21;9.00;;;2.97;;
77457;SDS011;66541;49.346;8.648;2023-04-25T06:55:47;10.48;;;3.30;;
77457;SDS011;66541;49.346;8.648;2023-04-25T06:58:12;9.70;;;3.60;;
77457;SDS011;66541;49.346;8.648;2023-04-25T07:00:37;9.10;;;3.25;;
77457;SDS011;66541;49.346;8.648;2023-04-25T07:03:02;9.68;;;3.28;;
77457;SDS011;66541;49.346;8.648;2023-04-25T07:05:28;9.93;;;3.58;;
77457;SDS011;66541;49.346;8.648;2023-04-25T07:07:53;10.18;;;3.55;;
77457;SDS011;66541;49.346;8.648;2023-04-25T07:10:18;10.80;;;3.40;;
77457;SDS011;66541;49.346;8.648;2023-04-25T07:12:44;8.95;;;3.00;;
77457;SDS011;66541;49.346;8.648;2023-04-25T07:15:09;9.80;;;3.53;;
77457;SDS011;66541;49.346;8.648;2023-04-25T07:17:36;11.93;;;4.78;;
77457;SDS011;66541;49.346;8.648;2023-04-25T07:20:02;11.07;;;3.97;;
77457;SDS011;66541;49.346;8.648;2023-04-25T07:22:28;12.68;;;5.18;;
77457;SDS011;66541;49.346;8.648;2023-04-25T07:24:54;12.23;;;5.22;;
77457;SDS011;66541;49.346;8.648;2023-04-25T07:27:19;11.45;;;4.53;;
77457;SDS011;66541;49.346;8.648;2023-04-25T07:29:44;12.15;;;4.30;;
77457;SDS011;66541;49.346;8.648;2023-04-25T07:32:09;12.45;;;4.55;;
77457;SDS011;66541;49.346;8.648;2023-04-25T07:34:37;13.27;;;3.67;;
77457;SDS011;66541;49.346;8.648;2023-04-25T07:37:03;11.90;;;4.00;;
77457;SDS011;66541;49.346;8.648;2023-04-25T07:39:29;13.02;;;4.70;;
77457;SDS011;66541;49.346;8.648;2023-04-25T07:41:54;11.23;;;3.97;;
77457;SDS011;66541;49.346;8.648;2023-04-25T07:44:19;12.18;;;3.97;;
77457;SDS011;66541;49.346;8.648;2023-04-25T07:46:45;9.75;;;3.10;;
77457;SDS011;66541;49.346;8.648;2023-04-25T07:49:10;10.90;;;3.60;;
77457;SDS011;66541;49.346;8.648;2023-04-25T07:51:35;10.57;;;2.97;;
77457;SDS011;66541;49.346;8.648;2023-04-25T07:54:01;13.65;;;3.65;;
77457;SDS011;66541;49.346;8.648;2023-04-25T07:56:26;10.25;;;2.95;;
77457;SDS011;66541;49.346;8.648;2023-04-25T07:58:52;10.07;;;3.05;;
77457;SDS011;66541;49.346;8.648;2023-04-25T08:01:17;13.65;;;3.13;;
77457;SDS011;66541;49.346;8.648;2023-04-25T08:03:43;10.23;;;2.65;;
77457;SDS011;66541;49.346;8.648;2023-04-25T08:06:09;10.68;;;2.95;;
77457;SDS011;66541;49.346;8.648;2023-04-25T08:08:34;10.82;;;2.53;;
77457;SDS011;66541;49.346;8.648;2023-04-25T08:10:59;9.00;;;2.88;;
77457;SDS011;66541;49.346;8.648;2023-04-25T08:13:25;9.85;;;2.88;;
77457;SDS011;66541;49.346;8.648;2023-04-25T08:15:50;11.45;;;3.30;;
77457;SDS011;66541;49.346;8.648;2023-04-25T08:18:15;10.60;;;2.90;;
77457;SDS011;66541;49.346;8.648;2023-04-25T08:20:41;11.73;;;2.90;;
77457;SDS011;66541;49.346;8.648;2023-04-25T08:23:06;9.35;;;2.42;;
77457;SDS011;66541;49.346;8.648;2023-04-25T08:25:32;13.70;;;3.47;;
77457;SDS011;66541;49.346;8.648;2023-04-25T08:27:58;11.35;;;3.20;;
77457;SDS011;66541;49.346;8.648;2023-04-25T08:30:24;11.20;;;2.35;;
77457;SDS011;66541;49.346;8.648;2023-04-25T08:32:49;9.98;;;2.38;;
77457;SDS011;66541;49.346;8.648;2023-04-25T08:35:15;9.10;;;2.72;;
77457;SDS011;66541;49.346;8.648;2023-04-25T08:37:42;11.15;;;2.70;;
77457;SDS011;66541;49.346;8.648;2023-04-25T08:40:07;9.13;;;3.53;;
77457;SDS011;66541;49.346;8.648;2023-04-25T08:42:37;8.82;;;2.67;;
77457;SDS011;66541;49.346;8.648;2023-04-25T08:45:02;9.95;;;2.72;;
77457;SDS011;66541;49.346;8.648;2023-04-25T08:47:28;9.13;;;2.25;;
77457;SDS011;66541;49.346;8.648;2023-04-25T08:49:54;12.25;;;2.67;;
77457;SDS011;66541;49.346;8.648;2023-04-25T08:52:21;9.75;;;2.70;;
77457;SDS011;66541;49.346;8.648;2023-04-25T08:54:48;7.57;;;2.00;;
77457;SDS011;66541;49.346;8.648;2023-04-25T08:57:14;9.50;;;2.10;;
77457;SDS011;66541;49.346;8.648;2023-04-25T08:59:40;9.93;;;2.80;;
77457;SDS011;66541;49.346;8.648;2023-04-25T09:02:09;8.70;;;2.33;;
77457;SDS011;66541;49.346;8.648;2023-04-25T09:04:39;8.30;;;2.47;;
77457;SDS011;66541;49.346;8.648;2023-04-25T09:07:05;8.43;;;2.60;;
77457;SDS011;66541;49.346;8.648;2023-04-25T09:09:30;10.32;;;2.92;;
77457;SDS011;66541;49.346;8.648;2023-04-25T09:11:56;9.95;;;2.58;;
77457;SDS011;66541;49.346;8.648;2023-04-25T09:14:22;7.88;;;2.20;;
77457;SDS011;66541;49.346;8.648;2023-04-25T09:22:01;10.85;;;2.38;;
77457;SDS011;66541;49.346;8.648;2023-04-25T09:24:37;8.50;;;2.17;;
77457;SDS011;66541;49.346;8.648;2023-04-25T09:27:26;9.88;;;2.38;;
77457;SDS011;66541;49.346;8.648;2023-04-25T09:29:56;8.90;;;2.42;;
77457;SDS011;66541;49.346;8.648;2023-04-25T09:32:24;8.35;;;2.35;;
77457;SDS011;66541;49.346;8.648;2023-04-25T09:34:50;8.93;;;2.25;;
77457;SDS011;66541;49.346;8.648;2023-04-25T09:37:23;9.30;;;2.22;;
77457;SDS011;66541;49.346;8.648;2023-04-25T09:39:51;8.07;;;2.08;;
77457;SDS011;66541;49.346;8.648;2023-04-25T09:42:17;9.63;;;2.47;;
77457;SDS011;66541;49.346;8.648;2023-04-25T09:44:44;8.73;;;2.55;;
77457;SDS011;66541;49.346;8.648;2023-04-25T09:47:10;9.70;;;2.58;;
77457;SDS011;66541;49.346;8.648;2023-04-25T09:49:41;11.75;;;2.55;;
77457;SDS011;66541;49.346;8.648;2023-04-25T09:52:07;8.55;;;2.65;;
77457;SDS011;66541;49.346;8.648;2023-04-25T09:54:33;8.18;;;1.70;;
77457;SDS011;66541;49.346;8.648;2023-04-25T09:56:58;9.88;;;2.00;;
77457;SDS011;66541;49.346;8.648;2023-04-25T09:59:33;8.68;;;2.15;;
77457;SDS011;66541;49.346;8.648;2023-04-25T10:02:00;8.68;;;1.88;;
77457;SDS011;66541;49.346;8.648;2023-04-25T10:06:52;9.10;;;2.03;;
77457;SDS011;66541;49.346;8.648;2023-04-25T10:09:20;8.98;;;1.90;;
77457;SDS011;66541;49.346;8.648;2023-04-25T10:11:46;8.63;;;1.98;;
77457;SDS011;66541;49.346;8.648;2023-04-25T10:14:13;10.00;;;2.22;;
77457;SDS011;66541;49.346;8.648;2023-04-25T10:16:39;10.55;;;2.25;;
77457;SDS011;66541;49.346;8.648;2023-04-25T10:19:05;8.38;;;2.85;;
77457;SDS011;66541;49.346;8.648;2023-04-25T10:21:31;10.50;;;2.83;;
77457;SDS011;66541;49.346;8.648;2023-04-25T10:23:56;9.48;;;2.55;;
77457;SDS011;66541;49.346;8.648;2023-04-25T10:26:22;8.57;;;2.03;;
77457;SDS011;66541;49.346;8.648;2023-04-25T10:28:54;11.35;;;2.10;;
77457;SDS011;66541;49.346;8.648;2023-04-25T10:31:24;10.70;;;2.33;;
77457;SDS011;66541;49.346;8.648;2023-04-25T10:33:49;8.00;;;2.47;;
77457;SDS011;66541;49.346;8.648;2023-04-25T10:36:18;11.85;;;2.53;;
77457;SDS011;66541;49.346;8.648;2023-04-25T10:38:47;9.02;;;2.22;;
77457;SDS011;66541;49.346;8.648;2023-04-25T10:41:13;10.07;;;2.22;;
77457;SDS011;66541;49.346;8.648;2023-04-25T10:43:48;9.25;;;2.25;;
77457;SDS011;66541;49.346;8.648;2023-04-25T10:46:29;7.30;;;2.28;;
77457;SDS011;66541;49.346;8.648;2023-04-25T10:48:57;10.20;;;2.20;;
77457;SDS011;66541;49.346;8.648;2023-04-25T10:51:24;9.52;;;2.33;;
77457;SDS011;66541;49.346;8.648;2023-04-25T10:53:57;9.43;;;2.42;;
77457;SDS011;66541;49.346;8.648;2023-04-25T10:56:26;9.65;;;2.42;;
77457;SDS011;66541;49.346;8.648;2023-04-25T10:59:01;9.90;;;1.90;;
77457;SDS011;66541;49.346;8.648;2023-04-25T11:01:28;8.43;;;1.90;;
77457;SDS011;66541;49.346;8.648;2023-04-25T11:04:00;9.55;;;2.33;;
77457;SDS011;66541;49.346;8.648;2023-04-25T11:06:29;7.07;;;1.85;;
77457;SDS011;66541;49.346;8.648;2023-04-25T11:09:12;8.63;;;2.20;;
77457;SDS011;66541;49.346;8.648;2023-04-25T11:11:38;7.47;;;1.90;;
77457;SDS011;66541;49.346;8.648;2023-04-25T11:14:03;7.82;;;2.22;;
77457;SDS011;66541;49.346;8.648;2023-04-25T11:16:29;7.25;;;2.17;;
77457;SDS011;66541;49.346;8.648;2023-04-25T11:18:56;9.82;;;2.67;;
77457;SDS011;66541;49.346;8.648;2023-04-25T11:21:22;8.85;;;2.40;;
77457;SDS011;66541;49.346;8.648;2023-04-25T11:23:47;9.82;;;2.83;;
77457;SDS011;66541;49.346;8.648;2023-04-25T11:26:13;9.93;;;2.30;;
77457;SDS011;66541;49.346;8.648;2023-04-25T11:28:38;10.43;;;2.20;;
77457;SDS011;66541;49.346;8.648;2023-04-25T11:31:04;7.75;;;2.58;;
77457;SDS011;66541;49.346;8.648;2023-04-25T11:33:29;9.57;;;2.10;;
77457;SDS011;66541;49.346;8.648;2023-04-25T11:35:55;10.80;;;3.05;;
77457;SDS011;66541;49.346;8.648;2023-04-25T11:38:21;16.05;;;2.88;;
77457;SDS011;66541;49.346;8.648;2023-04-25T11:40:53;7.88;;;2.42;;
77457;SDS011;66541;49.346;8.648;2023-04-25T11:43:20;10.00;;;2.80;;
77457;SDS011;66541;49.346;8.648;2023-04-25T11:45:47;9.10;;;2.17;;
77457;SDS011;66541;49.346;8.648;2023-04-25T11:48:16;7.65;;;1.75;;
77457;SDS011;66541;49.346;8.648;2023-04-25T11:50:41;8.77;;;1.73;;
77457;SDS011;66541;49.346;8.648;2023-04-25T11:53:07;7.80;;;1.52;;
77457;SDS011;66541;49.346;8.648;2023-04-25T11:55:33;9.02;;;2.40;;
77457;SDS011;66541;49.346;8.648;2023-04-25T11:57:59;9.70;;;1.75;;
77457;SDS011;66541;49.346;8.648;2023-04-25T12:00:25;6.40;;;1.50;;
77457;SDS011;66541;49.346;8.648;2023-04-25T12:02:55;8.80;;;2.05;;
77457;SDS011;66541;49.346;8.648;2023-04-25T12:05:23;9.50;;;2.05;;
77457;SDS011;66541;49.346;8.648;2023-04-25T12:07:50;6.85;;;1.55;;
77457;SDS011;66541;49.346;8.648;2023-04-25T12:10:16;9.02;;;2.00;;
77457;SDS011;66541;49.346;8.648;2023-04-25T12:12:43;8.18;;;2.08;;
77457;SDS011;66541;49.346;8.648;2023-04-25T12:15:12;7.30;;;1.70;;
77457;SDS011;66541;49.346;8.648;2023-04-25T12:17:48;7.57;;;2.13;;
77457;SDS011;66541;49.346;8.648;2023-04-25T12:20:15;7.18;;;1.95;;
77457;SDS011;66541;49.346;8.648;2023-04-25T12:22:42;7.70;;;2.08;;
77457;SDS011;66541;49.346;8.648;2023-04-25T12:25:12;8.63;;;1.98;;
77457;SDS011;66541;49.346;8.648;2023-04-25T12:28:08;7.43;;;1.90;;
77457;SDS011;66541;49.346;8.648;2023-04-25T12:30:58;6.85;;;1.77;;
77457;SDS011;66541;49.346;8.648;2023-04-25T12:33:25;6.32;;;1.52;;
77457;SDS011;66541;49.346;8.648;2023-04-25T12:35:52;6.13;;;1.52;;
77457;SDS011;66541;49.346;8.648;2023-04-25T12:38:21;7.30;;;2.13;;
77457;SDS011;66541;49.346;8.648;2023-04-25T12:40:50;7.65;;;1.98;;
77457;SDS011;66541;49.346;8.648;2023-04-25T12:43:15;7.10;;;1.83;;
77457;SDS011;66541;49.346;8.648;2023-04-25T12:45:41;7.95;;;1.92;;
77457;SDS011;66541;49.346;8.648;2023-04-25T12:48:07;8.70;;;2.00;;
77457;SDS011;66541;49.346;8.648;2023-04-25T12:50:32;7.70;;;1.77;;
77457;SDS011;66541;49.346;8.648;2023-04-25T12:52:57;8.18;;;2.47;;
77457;SDS011;66541;49.346;8.648;2023-04-25T12:55:22;7.32;;;2.00;;
77457;SDS011;66541;49.346;8.648;2023-04-25T12:57:48;7.28;;;1.77;;
77457;SDS011;66541;49.346;8.648;2023-04-25T13:00:13;7.93;;;2.13;;
77457;SDS011;66541;49.346;8.648;2023-04-25T13:02:40;6.70;;;1.80;;
77457;SDS011;66541;49.346;8.648;2023-04-25T13:05:05;8.18;;;2.03;;
77457;SDS011;66541;49.346;8.648;2023-04-25T13:07:31;7.50;;;2.22;;
77457;SDS011;66541;49.346;8.648;2023-04-25T13:09:56;7.30;;;2.08;;
77457;SDS011;66541;49.346;8.648;2023-04-25T13:12:22;6.22;;;1.60;;
77457;SDS011;66541;49.346;8.648;2023-04-25T13:14:47;9.00;;;2.42;;
77457;SDS011;66541;49.346;8.648;2023-04-25T13:17:12;8.13;;;2.10;;
77457;SDS011;66541;49.346;8.648;2023-04-25T13:19:38;8.05;;;2.22;;
77457;SDS011;66541;49.346;8.648;2023-04-25T13:22:04;7.00;;;1.88;;
77457;SDS011;66541;49.346;8.648;2023-04-25T13:24:29;7.70;;;2.10;;
77457;SDS011;66541;49.346;8.648;2023-04-25T13:26:54;7.07;;;1.92;;
77457;SDS011;66541;49.346;8.648;2023-04-25T13:29:20;7.80;;;1.83;;
77457;SDS011;66541;49.346;8.648;2023-04-25T13:31:45;6.88;;;2.10;;
77457;SDS011;66541;49.346;8.648;2023-04-25T13:34:10;7.47;;;2.33;;
77457;SDS011;66541;49.346;8.648;2023-04-25T13:36:37;7.90;;;2.15;;
77457;SDS011;66541;49.346;8.648;2023-04-25T13:39:02;8.15;;;2.42;;
77457;SDS011;66541;49.346;8.648;2023-04-25T13:41:29;10.25;;;2.22;;
77457;SDS011;66541;49.346;8.648;2023-04-25T13:43:54;7.88;;;2.17;;
77457;SDS011;66541;49.346;8.648;2023-04-25T13:46:20;6.93;;;1.73;;
77457;SDS011;66541;49.346;8.648;2023-04-25T13:48:45;7.28;;;2.08;;
77457;SDS011;66541;49.346;8.648;2023-04-25T13:51:13;7.05;;;1.98;;
77457;SDS011;66541;49.346;8.648;2023-04-25T13:53:40;8.15;;;2.63;;
77457;SDS011;66541;49.346;8.648;2023-04-25T13:56:05;6.70;;;2.40;;
77457;SDS011;66541;49.346;8.648;2023-04-25T13:58:31;7.45;;;2.03;;
77457;SDS011;66541;49.346;8.648;2023-04-25T14:00:57;10.10;;;2.53;;
77457;SDS011;66541;49.346;8.648;2023-04-25T14:03:22;7.90;;;2.00;;
77457;SDS011;66541;49.346;8.648;2023-04-25T14:05:47;7.85;;;2.30;;
77457;SDS011;66541;49.346;8.648;2023-04-25T14:08:13;7.45;;;2.10;;
77457;SDS011;66541;49.346;8.648;2023-04-25T14:10:38;8.63;;;2.42;;
77457;SDS011;66541;49.346;8.648;2023-04-25T14:13:04;9.05;;;2.60;;
77457;SDS011;66541;49.346;8.648;2023-04-25T14:15:31;8.68;;;2.28;;
77457;SDS011;66541;49.346;8.648;2023-04-25T14:17:57;8.85;;;2.50;;
77457;SDS011;66541;49.346;8.648;2023-04-25T14:20:22;8.50;;;2.53;;
77457;SDS011;66541;49.346;8.648;2023-04-25T14:22:48;8.57;;;1.95;;
77457;SDS011;66541;49.346;8.648;2023-04-25T14:25:14;8.85;;;2.33;;
77457;SDS011;66541;49.346;8.648;2023-04-25T14:27:39;7.47;;;1.73;;
77457;SDS011;66541;49.346;8.648;2023-04-25T14:30:05;9.10;;;3.20;;
77457;SDS011;66541;49.346;8.648;2023-04-25T14:32:34;7.72;;;2.40;;
77457;SDS011;66541;49.346;8.648;2023-04-25T14:34:59;9.10;;;2.50;;
77457;SDS011;66541;49.346;8.648;2023-04-25T14:37:25;8.90;;;2.50;;
77457;SDS011;66541;49.346;8.648;2023-04-25T14:39:50;10.35;;;2.58;;
77457;SDS011;66541;49.346;8.648;2023-04-25T14:42:16;7.30;;;2.10;;
77457;SDS011;66541;49.346;8.648;2023-04-25T14:44:41;7.72;;;2.05;;
77457;SDS011;66541;49.346;8.648;2023-04-25T14:47:06;7.15;;;2.30;;
77457;SDS011;66541;49.346;8.648;2023-04-25T14:49:32;8.52;;;1.95;;